sensor_id;sensor_type;location;lat;lon;timestamp;pressure;altitude;pressure_sealevel;temperature;humidity
15674;BME280;7937;48.090;16.212;2022-07-17T00:01:14;98498.78;;;14.93;64.95
15674;BME280;7937;48.090;16.212;2022-07-17T00:04:16;98501.38;;;14.84;65.63
15674;BME280;7937;48.090;16.212;2022-07-17T00:07:20;98498.78;;;14.72;65.61
15674;BME280;7937;48.090;16.212;2022-07-17T00:10:22;98502.94;;;14.65;65.96
15674;BME280;7937;48.090;16.212;2022-07-17T00:13:25;98506.47;;;14.55;66.25
15674;BME280;7937;48.090;16.212;2022-07-17T00:16:27;98503.03;;;14.43;66.41
15674;BME280;7937;48.090;16.212;2022-07-17T00:19:29;98517.28;;;14.31;67.29
15674;BME280;7937;48.090;16.212;2022-07-17T00:22:31;98508.50;;;14.19;67.83
15674;BME280;7937;48.090;16.212;2022-07-17T00:25:33;98509.00;;;14.13;68.12
15674;BME280;7937;48.090;16.212;2022-07-17T00:28:35;98509.63;;;14.06;68.32
15674;BME280;7937;48.090;16.212;2022-07-17T00:31:37;98514.59;;;13.99;68.74
15674;BME280;7937;48.090;16.212;2022-07-17T00:34:39;98514.25;;;13.92;68.79
15674;BME280;7937;48.090;16.212;2022-07-17T00:37:44;98512.78;;;13.88;69.17
15674;BME280;7937;48.090;16.212;2022-07-17T00:40:46;98515.09;;;13.82;69.33
15674;BME280;7937;48.090;16.212;2022-07-17T00:43:49;98513.81;;;13.76;69.81
15674;BME280;7937;48.090;16.212;2022-07-17T00:46:51;98521.25;;;13.71;69.71
15674;BME280;7937;48.090;16.212;2022-07-17T00:49:53;98513.31;;;13.71;69.93
15674;BME280;7937;48.090;16.212;2022-07-17T00:52:55;98512.34;;;13.72;69.85
15674;BME280;7937;48.090;16.212;2022-07-17T00:55:58;98513.91;;;13.75;69.34
15674;BME280;7937;48.090;16.212;2022-07-17T00:59:03;98519.81;;;13.78;68.81
15674;BME280;7937;48.090;16.212;2022-07-17T01:02:12;98526.91;;;13.78;69.07
15674;BME280;7937;48.090;16.212;2022-07-17T01:05:17;98529.44;;;13.79;69.00
15674;BME280;7937;48.090;16.212;2022-07-17T01:08:21;98535.38;;;13.83;69.26
15674;BME280;7937;48.090;16.212;2022-07-17T01:11:24;98537.19;;;13.82;69.05
15674;BME280;7937;48.090;16.212;2022-07-17T01:14:27;98530.91;;;13.83;69.01
15674;BME280;7937;48.090;16.212;2022-07-17T01:17:30;98539.59;;;13.85;69.54
15674;BME280;7937;48.090;16.212;2022-07-17T01:20:33;98542.38;;;13.84;69.78
15674;BME280;7937;48.090;16.212;2022-07-17T01:23:35;98534.63;;;13.81;69.83
15674;BME280;7937;48.090;16.212;2022-07-17T01:26:40;98537.28;;;13.81;69.63
15674;BME280;7937;48.090;16.212;2022-07-17T01:29:42;98536.44;;;13.80;69.82
15674;BME280;7937;48.090;16.212;2022-07-17T01:32:44;98542.13;;;13.76;69.80
15674;BME280;7937;48.090;16.212;2022-07-17T01:35:47;98543.44;;;13.70;69.48
15674;BME280;7937;48.090;16.212;2022-07-17T01:38:49;98539.72;;;13.61;69.44
15674;BME280;7937;48.090;16.212;2022-07-17T01:41:51;98542.03;;;13.55;69.53
15674;BME280;7937;48.090;16.212;2022-07-17T01:44:53;98539.13;;;13.47;69.90
15674;BME280;7937;48.090;16.212;2022-07-17T01:47:56;98537.78;;;13.41;70.09
15674;BME280;7937;48.090;16.212;2022-07-17T01:50:58;98542.84;;;13.33;70.11
15674;BME280;7937;48.090;16.212;2022-07-17T01:54:01;98539.97;;;13.25;70.03
15674;BME280;7937;48.090;16.212;2022-07-17T01:57:03;98547.50;;;13.18;70.57
15674;BME280;7937;48.090;16.212;2022-07-17T02:00:07;98538.44;;;13.10;70.61
15674;BME280;7937;48.090;16.212;2022-07-17T02:03:10;98540.63;;;13.05;70.67
15674;BME280;7937;48.090;16.212;2022-07-17T02:06:12;98541.22;;;12.97;70.94
15674;BME280;7937;48.090;16.212;2022-07-17T02:09:14;98541.44;;;12.94;70.80
15674;BME280;7937;48.090;16.212;2022-07-17T02:12:16;98547.91;;;12.90;71.38
15674;BME280;7937;48.090;16.212;2022-07-17T02:15:18;98553.78;;;12.82;71.43
15674;BME280;7937;48.090;16.212;2022-07-17T02:18:20;98555.34;;;12.74;71.60
15674;BME280;7937;48.090;16.212;2022-07-17T02:21:22;98552.41;;;12.66;72.09
15674;BME280;7937;48.090;16.212;2022-07-17T02:24:24;98554.91;;;12.56;72.49
15674;BME280;7937;48.090;16.212;2022-07-17T02:27:27;98554.41;;;12.51;72.80
15674;BME280;7937;48.090;16.212;2022-07-17T02:30:29;98560.25;;;12.43;72.96
15674;BME280;7937;48.090;16.212;2022-07-17T02:33:31;98556.50;;;12.35;73.06
15674;BME280;7937;48.090;16.212;2022-07-17T02:36:33;98564.25;;;12.25;73.35
15674;BME280;7937;48.090;16.212;2022-07-17T02:39:35;98559.66;;;12.16;73.55
15674;BME280;7937;48.090;16.212;2022-07-17T02:42:37;98561.75;;;12.11;73.43
15674;BME280;7937;48.090;16.212;2022-07-17T02:45:39;98568.34;;;12.05;73.70
15674;BME280;7937;48.090;16.212;2022-07-17T02:48:42;98569.13;;;11.95;73.99
15674;BME280;7937;48.090;16.212;2022-07-17T02:51:44;98562.13;;;11.94;74.08
15674;BME280;7937;48.090;16.212;2022-07-17T02:54:46;98555.16;;;11.93;73.84
15674;BME280;7937;48.090;16.212;2022-07-17T02:57:48;98561.97;;;11.84;74.00
15674;BME280;7937;48.090;16.212;2022-07-17T03:00:50;98563.22;;;11.78;73.62
15674;BME280;7937;48.090;16.212;2022-07-17T03:03:53;98563.75;;;11.71;74.06
15674;BME280;7937;48.090;16.212;2022-07-17T03:06:55;98565.97;;;11.64;74.21
15674;BME280;7937;48.090;16.212;2022-07-17T03:09:57;98564.94;;;11.54;74.83
15674;BME280;7937;48.090;16.212;2022-07-17T03:12:59;98567.47;;;11.43;75.05
15674;BME280;7937;48.090;16.212;2022-07-17T03:16:00;98568.00;;;11.35;75.54
15674;BME280;7937;48.090;16.212;2022-07-17T03:19:02;98566.13;;;11.37;75.20
15674;BME280;7937;48.090;16.212;2022-07-17T03:22:04;98572.44;;;11.35;74.90
15674;BME280;7937;48.090;16.212;2022-07-17T03:25:07;98574.66;;;11.28;75.13
15674;BME280;7937;48.090;16.212;2022-07-17T03:28:09;98569.59;;;11.25;74.96
15674;BME280;7937;48.090;16.212;2022-07-17T03:31:12;98576.34;;;11.29;75.32
15674;BME280;7937;48.090;16.212;2022-07-17T03:34:14;98580.16;;;11.38;74.96
15674;BME280;7937;48.090;16.212;2022-07-17T03:37:17;98580.91;;;11.40;74.65
15674;BME280;7937;48.090;16.212;2022-07-17T03:40:19;98580.59;;;11.44;74.57
15674;BME280;7937;48.090;16.212;2022-07-17T03:43:21;98576.47;;;11.40;74.75
15674;BME280;7937;48.090;16.212;2022-07-17T03:46:23;98577.31;;;11.41;74.51
15674;BME280;7937;48.090;16.212;2022-07-17T03:49:25;98589.25;;;11.46;74.52
15674;BME280;7937;48.090;16.212;2022-07-17T03:52:27;98590.13;;;11.47;74.71
15674;BME280;7937;48.090;16.212;2022-07-17T03:55:29;98583.97;;;11.46;74.58
15674;BME280;7937;48.090;16.212;2022-07-17T03:58:31;98588.41;;;11.46;74.75
15674;BME280;7937;48.090;16.212;2022-07-17T04:01:34;98591.56;;;11.51;74.33
15674;BME280;7937;48.090;16.212;2022-07-17T04:04:36;98592.63;;;11.61;74.34
15674;BME280;7937;48.090;16.212;2022-07-17T04:07:39;98593.66;;;11.71;74.31
15674;BME280;7937;48.090;16.212;2022-07-17T04:10:42;98590.19;;;11.71;73.68
15674;BME280;7937;48.090;16.212;2022-07-17T04:13:44;98584.03;;;11.70;73.88
15674;BME280;7937;48.090;16.212;2022-07-17T04:16:46;98589.06;;;11.75;73.81
15674;BME280;7937;48.090;16.212;2022-07-17T04:19:48;98592.00;;;11.83;73.86
15674;BME280;7937;48.090;16.212;2022-07-17T04:22:51;98591.97;;;11.96;73.37
15674;BME280;7937;48.090;16.212;2022-07-17T04:25:53;98599.03;;;12.08;73.20
15674;BME280;7937;48.090;16.212;2022-07-17T04:28:55;98597.53;;;12.16;72.80
15674;BME280;7937;48.090;16.212;2022-07-17T04:31:57;98597.81;;;12.25;72.84
15674;BME280;7937;48.090;16.212;2022-07-17T04:34:59;98598.22;;;12.31;72.37
15674;BME280;7937;48.090;16.212;2022-07-17T04:38:02;98597.25;;;12.32;72.47
15674;BME280;7937;48.090;16.212;2022-07-17T04:41:08;98599.63;;;12.24;72.21
15674;BME280;7937;48.090;16.212;2022-07-17T04:44:10;98599.09;;;12.19;72.42
15674;BME280;7937;48.090;16.212;2022-07-17T04:47:12;98603.53;;;12.18;72.77
15674;BME280;7937;48.090;16.212;2022-07-17T04:50:14;98601.75;;;12.19;72.52
15674;BME280;7937;48.090;16.212;2022-07-17T04:53:16;98601.75;;;12.19;73.24
15674;BME280;7937;48.090;16.212;2022-07-17T04:56:24;98594.44;;;12.23;72.83
15674;BME280;7937;48.090;16.212;2022-07-17T04:59:26;98602.91;;;12.28;72.74
15674;BME280;7937;48.090;16.212;2022-07-17T05:02:28;98597.38;;;12.31;73.07
15674;BME280;7937;48.090;16.212;2022-07-17T05:05:30;98597.38;;;12.31;73.37
15674;BME280;7937;48.090;16.212;2022-07-17T05:08:34;98607.84;;;12.32;73.71
15674;BME280;7937;48.090;16.212;2022-07-17T05:11:36;98602.44;;;12.34;73.56
15674;BME280;7937;48.090;16.212;2022-07-17T05:14:38;98602.22;;;12.37;73.50
15674;BME280;7937;48.090;16.212;2022-07-17T05:17:40;98606.44;;;12.39;73.68
15674;BME280;7937;48.090;16.212;2022-07-17T05:20:42;98604.53;;;12.41;73.80
15674;BME280;7937;48.090;16.212;2022-07-17T05:23:44;98606.97;;;12.44;73.93
15674;BME280;7937;48.090;16.212;2022-07-17T05:26:46;98604.69;;;12.51;74.25
15674;BME280;7937;48.090;16.212;2022-07-17T05:29:48;98606.19;;;12.55;74.62
15674;BME280;7937;48.090;16.212;2022-07-17T05:32:50;98608.38;;;12.61;74.61
15674;BME280;7937;48.090;16.212;2022-07-17T05:35:52;98609.47;;;12.70;74.63
15674;BME280;7937;48.090;16.212;2022-07-17T05:38:54;98602.91;;;12.75;75.21
15674;BME280;7937;48.090;16.212;2022-07-17T05:41:56;98611.13;;;12.83;75.05
15674;BME280;7937;48.090;16.212;2022-07-17T05:44:58;98603.66;;;12.88;74.76
15674;BME280;7937;48.090;16.212;2022-07-17T05:48:00;98607.44;;;12.97;75.22
15674;BME280;7937;48.090;16.212;2022-07-17T05:51:02;98609.41;;;13.06;75.47
15674;BME280;7937;48.090;16.212;2022-07-17T05:54:12;98609.88;;;13.11;75.43
15674;BME280;7937;48.090;16.212;2022-07-17T05:57:14;98607.41;;;13.21;75.37
15674;BME280;7937;48.090;16.212;2022-07-17T06:00:17;98616.56;;;13.28;75.70
15674;BME280;7937;48.090;16.212;2022-07-17T06:03:20;98614.22;;;13.36;75.42
15674;BME280;7937;48.090;16.212;2022-07-17T06:06:22;98617.09;;;13.44;75.25
15674;BME280;7937;48.090;16.212;2022-07-17T06:09:24;98621.69;;;13.53;75.16
15674;BME280;7937;48.090;16.212;2022-07-17T06:12:26;98621.09;;;13.61;75.10
15674;BME280;7937;48.090;16.212;2022-07-17T06:15:28;98624.63;;;13.73;75.09
15674;BME280;7937;48.090;16.212;2022-07-17T06:18:30;98621.84;;;13.85;75.01
15674;BME280;7937;48.090;16.212;2022-07-17T06:21:33;98622.69;;;13.97;74.54
15674;BME280;7937;48.090;16.212;2022-07-17T06:24:34;98624.84;;;14.14;74.79
15674;BME280;7937;48.090;16.212;2022-07-17T06:27:41;98624.09;;;14.34;73.94
15674;BME280;7937;48.090;16.212;2022-07-17T06:30:43;98623.47;;;14.53;73.72
15674;BME280;7937;48.090;16.212;2022-07-17T06:33:45;98627.63;;;14.78;73.13
15674;BME280;7937;48.090;16.212;2022-07-17T06:36:47;98620.94;;;15.16;70.25
15674;BME280;7937;48.090;16.212;2022-07-17T06:39:49;98622.44;;;15.50;69.55
15674;BME280;7937;48.090;16.212;2022-07-17T06:42:51;98616.44;;;15.78;68.58
15674;BME280;7937;48.090;16.212;2022-07-17T06:45:54;98620.66;;;16.11;65.97
15674;BME280;7937;48.090;16.212;2022-07-17T06:48:57;98624.69;;;16.46;65.69
15674;BME280;7937;48.090;16.212;2022-07-17T06:51:59;98622.25;;;16.83;63.92
15674;BME280;7937;48.090;16.212;2022-07-17T06:55:01;98620.28;;;17.14;62.51
15674;BME280;7937;48.090;16.212;2022-07-17T06:58:03;98622.06;;;17.52;61.17
15674;BME280;7937;48.090;16.212;2022-07-17T07:01:05;98621.75;;;17.84;59.32
15674;BME280;7937;48.090;16.212;2022-07-17T07:04:07;98625.00;;;18.15;57.42
15674;BME280;7937;48.090;16.212;2022-07-17T07:07:10;98622.94;;;18.54;55.29
15674;BME280;7937;48.090;16.212;2022-07-17T07:10:12;98630.19;;;18.89;53.87
15674;BME280;7937;48.090;16.212;2022-07-17T07:13:14;98629.59;;;19.12;52.51
15674;BME280;7937;48.090;16.212;2022-07-17T07:16:16;98628.13;;;19.18;51.80
15674;BME280;7937;48.090;16.212;2022-07-17T07:19:18;98622.88;;;19.26;49.17
15674;BME280;7937;48.090;16.212;2022-07-17T07:22:20;98625.91;;;19.49;48.35
15674;BME280;7937;48.090;16.212;2022-07-17T07:25:22;98621.34;;;19.67;47.62
15674;BME280;7937;48.090;16.212;2022-07-17T07:28:24;98623.25;;;20.09;47.37
15674;BME280;7937;48.090;16.212;2022-07-17T07:31:26;98620.66;;;20.67;44.87
15674;BME280;7937;48.090;16.212;2022-07-17T07:34:29;98618.94;;;21.41;43.51
15674;BME280;7937;48.090;16.212;2022-07-17T07:37:32;98626.22;;;22.12;41.77
15674;BME280;7937;48.090;16.212;2022-07-17T07:40:34;98623.50;;;22.59;38.75
15674;BME280;7937;48.090;16.212;2022-07-17T07:43:36;98625.97;;;22.99;37.56
15674;BME280;7937;48.090;16.212;2022-07-17T07:46:38;98622.03;;;23.33;37.65
15674;BME280;7937;48.090;16.212;2022-07-17T07:49:41;98625.53;;;23.94;37.11
15674;BME280;7937;48.090;16.212;2022-07-17T07:52:43;98625.06;;;24.19;35.61
15674;BME280;7937;48.090;16.212;2022-07-17T07:55:45;98622.91;;;24.59;34.28
15674;BME280;7937;48.090;16.212;2022-07-17T07:58:47;98621.94;;;24.45;33.53
15674;BME280;7937;48.090;16.212;2022-07-17T08:01:49;98619.25;;;24.81;35.02
15674;BME280;7937;48.090;16.212;2022-07-17T08:04:51;98625.66;;;25.37;34.85
15674;BME280;7937;48.090;16.212;2022-07-17T08:07:53;98626.28;;;25.82;34.38
15674;BME280;7937;48.090;16.212;2022-07-17T08:10:55;98626.13;;;25.90;32.42
15674;BME280;7937;48.090;16.212;2022-07-17T08:13:57;98629.38;;;25.79;31.76
15674;BME280;7937;48.090;16.212;2022-07-17T08:17:08;98632.03;;;26.07;32.03
15674;BME280;7937;48.090;16.212;2022-07-17T08:20:11;98637.44;;;26.00;32.30
15674;BME280;7937;48.090;16.212;2022-07-17T08:23:15;98640.19;;;25.36;33.05
15674;BME280;7937;48.090;16.212;2022-07-17T08:26:17;98628.22;;;25.67;31.47
15674;BME280;7937;48.090;16.212;2022-07-17T08:29:19;98631.88;;;26.43;31.06
15674;BME280;7937;48.090;16.212;2022-07-17T08:32:42;98632.69;;;26.91;31.33
15674;BME280;7937;48.090;16.212;2022-07-17T08:35:44;98633.84;;;27.23;31.08
15674;BME280;7937;48.090;16.212;2022-07-17T08:38:47;98637.19;;;27.25;30.70
15674;BME280;7937;48.090;16.212;2022-07-17T08:41:49;98629.97;;;26.91;29.86
15674;BME280;7937;48.090;16.212;2022-07-17T08:44:51;98633.81;;;27.16;30.84
15674;BME280;7937;48.090;16.212;2022-07-17T08:47:55;98632.25;;;27.55;28.99
15674;BME280;7937;48.090;16.212;2022-07-17T08:50:59;98639.31;;;27.56;28.75
15674;BME280;7937;48.090;16.212;2022-07-17T08:54:01;98634.75;;;27.63;28.22
15674;BME280;7937;48.090;16.212;2022-07-17T08:57:03;98629.94;;;27.91;28.89
15674;BME280;7937;48.090;16.212;2022-07-17T09:00:06;98621.97;;;27.97;27.63
15674;BME280;7937;48.090;16.212;2022-07-17T09:03:09;98624.88;;;28.35;28.73
15674;BME280;7937;48.090;16.212;2022-07-17T09:06:19;98623.53;;;28.50;28.31
15674;BME280;7937;48.090;16.212;2022-07-17T09:09:22;98613.47;;;28.57;27.23
15674;BME280;7937;48.090;16.212;2022-07-17T09:12:28;98609.03;;;28.83;26.99
15674;BME280;7937;48.090;16.212;2022-07-17T09:15:33;98610.28;;;28.74;27.84
15674;BME280;7937;48.090;16.212;2022-07-17T09:18:45;98620.09;;;28.23;25.97
15674;BME280;7937;48.090;16.212;2022-07-17T09:21:50;98620.72;;;27.99;28.00
15674;BME280;7937;48.090;16.212;2022-07-17T09:24:57;98619.91;;;27.85;26.54
15674;BME280;7937;48.090;16.212;2022-07-17T09:28:01;98615.91;;;28.01;26.88
15674;BME280;7937;48.090;16.212;2022-07-17T09:31:04;98608.34;;;28.94;27.50
15674;BME280;7937;48.090;16.212;2022-07-17T09:34:16;98608.91;;;29.34;26.28
15674;BME280;7937;48.090;16.212;2022-07-17T09:37:21;98618.25;;;29.69;26.26
15674;BME280;7937;48.090;16.212;2022-07-17T09:40:24;98610.28;;;29.99;25.74
15674;BME280;7937;48.090;16.212;2022-07-17T09:43:48;98608.75;;;29.79;25.71
15674;BME280;7937;48.090;16.212;2022-07-17T09:46:50;98595.22;;;29.72;25.08
15674;BME280;7937;48.090;16.212;2022-07-17T09:49:53;98594.38;;;29.96;25.04
15674;BME280;7937;48.090;16.212;2022-07-17T09:52:57;98610.69;;;30.21;24.95
15674;BME280;7937;48.090;16.212;2022-07-17T09:55:59;98603.88;;;30.97;24.36
15674;BME280;7937;48.090;16.212;2022-07-17T09:59:05;98599.13;;;30.92;24.10
15674;BME280;7937;48.090;16.212;2022-07-17T10:02:11;98597.50;;;30.55;24.04
15674;BME280;7937;48.090;16.212;2022-07-17T10:05:14;98592.97;;;30.49;23.99
15674;BME280;7937;48.090;16.212;2022-07-17T10:08:18;98595.88;;;30.54;24.54
15674;BME280;7937;48.090;16.212;2022-07-17T10:11:23;98591.00;;;31.34;24.41
15674;BME280;7937;48.090;16.212;2022-07-17T10:14:25;98586.72;;;31.38;23.20
15674;BME280;7937;48.090;16.212;2022-07-17T10:17:28;98588.31;;;31.15;24.07
15674;BME280;7937;48.090;16.212;2022-07-17T10:20:30;98590.34;;;31.20;24.13
15674;BME280;7937;48.090;16.212;2022-07-17T10:23:32;98595.38;;;30.75;24.28
15674;BME280;7937;48.090;16.212;2022-07-17T10:29:38;98597.66;;;29.80;25.30
15674;BME280;7937;48.090;16.212;2022-07-17T10:32:52;98588.19;;;30.07;24.65
15674;BME280;7937;48.090;16.212;2022-07-17T10:35:55;98575.56;;;30.50;23.38
15674;BME280;7937;48.090;16.212;2022-07-17T10:39:16;98576.38;;;30.98;24.05
15674;BME280;7937;48.090;16.212;2022-07-17T10:45:45;98583.75;;;29.88;23.84
15674;BME280;7937;48.090;16.212;2022-07-17T10:48:48;98578.47;;;29.93;25.32
15674;BME280;7937;48.090;16.212;2022-07-17T10:51:51;98583.06;;;30.18;24.85
15674;BME280;7937;48.090;16.212;2022-07-17T10:54:53;98576.38;;;30.68;24.19
15674;BME280;7937;48.090;16.212;2022-07-17T10:57:56;98567.53;;;31.44;23.96
15674;BME280;7937;48.090;16.212;2022-07-17T11:04:08;98556.41;;;30.86;23.55
15674;BME280;7937;48.090;16.212;2022-07-17T11:07:10;98554.03;;;30.78;23.67
15674;BME280;7937;48.090;16.212;2022-07-17T11:10:13;98560.75;;;30.64;24.31
15674;BME280;7937;48.090;16.212;2022-07-17T11:13:16;98555.41;;;30.51;23.93
15674;BME280;7937;48.090;16.212;2022-07-17T11:16:28;98545.22;;;30.28;23.79
15674;BME280;7937;48.090;16.212;2022-07-17T11:19:39;98550.75;;;30.21;24.38
15674;BME280;7937;48.090;16.212;2022-07-17T11:22:42;98545.31;;;30.03;24.84
15674;BME280;7937;48.090;16.212;2022-07-17T11:26:04;98552.06;;;30.67;23.48
15674;BME280;7937;48.090;16.212;2022-07-17T11:29:06;98549.00;;;30.93;23.03
15674;BME280;7937;48.090;16.212;2022-07-17T11:32:09;98544.13;;;30.65;23.85
15674;BME280;7937;48.090;16.212;2022-07-17T11:35:19;98549.47;;;31.32;22.88
15674;BME280;7937;48.090;16.212;2022-07-17T11:38:41;98537.28;;;30.44;23.52
15674;BME280;7937;48.090;16.212;2022-07-17T11:41:45;98537.50;;;30.61;23.44
15674;BME280;7937;48.090;16.212;2022-07-17T11:44:50;98522.53;;;31.47;22.96
15674;BME280;7937;48.090;16.212;2022-07-17T11:47:52;98506.63;;;32.14;22.16
15674;BME280;7937;48.090;16.212;2022-07-17T11:50:55;98519.19;;;32.55;22.08
15674;BME280;7937;48.090;16.212;2022-07-17T11:54:03;98520.13;;;32.72;21.44
15674;BME280;7937;48.090;16.212;2022-07-17T11:57:06;98510.75;;;33.13;21.09
15674;BME280;7937;48.090;16.212;2022-07-17T12:00:10;98506.28;;;33.41;21.03
15674;BME280;7937;48.090;16.212;2022-07-17T12:03:12;98508.47;;;32.93;20.91
15674;BME280;7937;48.090;16.212;2022-07-17T12:06:24;98501.66;;;31.99;21.38
15674;BME280;7937;48.090;16.212;2022-07-17T12:09:31;98493.25;;;31.77;20.02
15674;BME280;7937;48.090;16.212;2022-07-17T12:12:36;98494.25;;;32.23;20.22
15674;BME280;7937;48.090;16.212;2022-07-17T12:15:41;98488.06;;;32.28;20.62
15674;BME280;7937;48.090;16.212;2022-07-17T12:18:43;98490.84;;;31.58;21.44
15674;BME280;7937;48.090;16.212;2022-07-17T12:22:02;98482.34;;;31.42;22.21
15674;BME280;7937;48.090;16.212;2022-07-17T12:25:05;98487.19;;;31.75;21.51
15674;BME280;7937;48.090;16.212;2022-07-17T12:28:07;98481.31;;;32.47;21.15
15674;BME280;7937;48.090;16.212;2022-07-17T12:31:13;98488.06;;;32.56;20.82
15674;BME280;7937;48.090;16.212;2022-07-17T12:34:18;98490.28;;;32.42;20.48
15674;BME280;7937;48.090;16.212;2022-07-17T12:37:21;98489.75;;;32.17;20.65
15674;BME280;7937;48.090;16.212;2022-07-17T12:40:23;98496.78;;;31.89;20.40
15674;BME280;7937;48.090;16.212;2022-07-17T12:43:25;98487.59;;;31.02;21.13
15674;BME280;7937;48.090;16.212;2022-07-17T12:46:28;98494.66;;;30.80;22.20
15674;BME280;7937;48.090;16.212;2022-07-17T12:49:31;98483.75;;;30.80;22.45
15674;BME280;7937;48.090;16.212;2022-07-17T12:52:33;98487.06;;;31.47;21.81
15674;BME280;7937;48.090;16.212;2022-07-17T12:55:36;98486.13;;;31.53;20.99
15674;BME280;7937;48.090;16.212;2022-07-17T12:58:39;98485.31;;;30.88;21.43
15674;BME280;7937;48.090;16.212;2022-07-17T13:01:41;98485.91;;;30.90;21.86
15674;BME280;7937;48.090;16.212;2022-07-17T13:04:43;98480.25;;;31.03;21.54
15674;BME280;7937;48.090;16.212;2022-07-17T13:07:45;98469.19;;;30.74;21.93
15674;BME280;7937;48.090;16.212;2022-07-17T13:10:47;98470.63;;;31.00;22.25
15674;BME280;7937;48.090;16.212;2022-07-17T13:13:50;98471.75;;;31.81;21.03
15674;BME280;7937;48.090;16.212;2022-07-17T13:16:52;98475.53;;;31.57;21.71
15674;BME280;7937;48.090;16.212;2022-07-17T13:19:54;98471.63;;;31.17;21.87
15674;BME280;7937;48.090;16.212;2022-07-17T13:22:56;98469.78;;;32.05;20.97
15674;BME280;7937;48.090;16.212;2022-07-17T13:25:58;98469.44;;;32.53;19.93
15674;BME280;7937;48.090;16.212;2022-07-17T13:29:00;98464.22;;;32.51;20.21
15674;BME280;7937;48.090;16.212;2022-07-17T13:32:04;98463.03;;;32.76;20.35
15674;BME280;7937;48.090;16.212;2022-07-17T13:35:07;98460.25;;;32.31;19.97
15674;BME280;7937;48.090;16.212;2022-07-17T13:38:09;98453.16;;;32.06;19.46
15674;BME280;7937;48.090;16.212;2022-07-17T13:41:11;98453.81;;;31.85;20.47
15674;BME280;7937;48.090;16.212;2022-07-17T13:44:13;98466.50;;;32.43;20.55
15674;BME280;7937;48.090;16.212;2022-07-17T13:47:15;98452.78;;;33.50;19.55
15674;BME280;7937;48.090;16.212;2022-07-17T13:50:17;98458.34;;;33.93;18.70
15674;BME280;7937;48.090;16.212;2022-07-17T13:53:20;98452.53;;;33.90;19.04
15674;BME280;7937;48.090;16.212;2022-07-17T13:56:22;98465.56;;;33.27;19.43
15674;BME280;7937;48.090;16.212;2022-07-17T13:59:24;98459.72;;;33.74;19.56
15674;BME280;7937;48.090;16.212;2022-07-17T14:02:27;98466.16;;;34.77;18.61
15674;BME280;7937;48.090;16.212;2022-07-17T14:05:31;98464.34;;;34.88;17.07
15674;BME280;7937;48.090;16.212;2022-07-17T14:08:34;98465.75;;;34.90;17.53
15674;BME280;7937;48.090;16.212;2022-07-17T14:11:36;98454.75;;;35.22;16.70
15674;BME280;7937;48.090;16.212;2022-07-17T14:14:38;98450.38;;;36.15;16.80
15674;BME280;7937;48.090;16.212;2022-07-17T14:17:41;98447.00;;;36.81;15.21
15674;BME280;7937;48.090;16.212;2022-07-17T14:20:43;98462.44;;;38.37;14.60
15674;BME280;7937;48.090;16.212;2022-07-17T14:23:46;98451.03;;;39.85;13.07
15674;BME280;7937;48.090;16.212;2022-07-17T14:26:48;98446.72;;;41.48;12.62
15674;BME280;7937;48.090;16.212;2022-07-17T14:29:50;98454.38;;;42.24;11.63
15674;BME280;7937;48.090;16.212;2022-07-17T14:32:52;98447.00;;;42.69;11.69
15674;BME280;7937;48.090;16.212;2022-07-17T14:35:54;98443.81;;;43.74;10.75
15674;BME280;7937;48.090;16.212;2022-07-17T14:38:56;98448.81;;;44.51;9.96
15674;BME280;7937;48.090;16.212;2022-07-17T14:41:59;98443.25;;;44.60;9.77
15674;BME280;7937;48.090;16.212;2022-07-17T14:45:01;98446.63;;;44.31;9.90
15674;BME280;7937;48.090;16.212;2022-07-17T14:48:04;98461.59;;;43.95;10.03
15674;BME280;7937;48.090;16.212;2022-07-17T14:51:06;98444.56;;;45.14;9.20
15674;BME280;7937;48.090;16.212;2022-07-17T14:54:08;98441.59;;;45.74;9.12
15674;BME280;7937;48.090;16.212;2022-07-17T14:57:10;98442.03;;;45.55;9.05
15674;BME280;7937;48.090;16.212;2022-07-17T15:00:13;98441.91;;;45.26;9.31
15674;BME280;7937;48.090;16.212;2022-07-17T15:03:16;98443.47;;;44.06;9.96
15674;BME280;7937;48.090;16.212;2022-07-17T15:06:18;98433.41;;;44.54;9.82
15674;BME280;7937;48.090;16.212;2022-07-17T15:09:21;98437.81;;;44.55;9.00
15674;BME280;7937;48.090;16.212;2022-07-17T15:12:23;98439.59;;;43.23;9.23
15674;BME280;7937;48.090;16.212;2022-07-17T15:15:25;98434.78;;;43.68;9.74
15674;BME280;7937;48.090;16.212;2022-07-17T15:18:27;98429.84;;;44.79;9.03
15674;BME280;7937;48.090;16.212;2022-07-17T15:21:29;98427.00;;;45.13;8.95
15674;BME280;7937;48.090;16.212;2022-07-17T15:24:51;98428.00;;;45.17;8.47
15674;BME280;7937;48.090;16.212;2022-07-17T15:27:53;98427.50;;;45.15;8.80
15674;BME280;7937;48.090;16.212;2022-07-17T15:30:56;98423.44;;;45.68;8.27
15674;BME280;7937;48.090;16.212;2022-07-17T15:33:58;98429.28;;;46.43;8.22
15674;BME280;7937;48.090;16.212;2022-07-17T15:37:00;98430.16;;;46.55;8.66
15674;BME280;7937;48.090;16.212;2022-07-17T15:40:03;98425.41;;;46.77;7.90
15674;BME280;7937;48.090;16.212;2022-07-17T15:43:05;98414.53;;;46.96;7.77
15674;BME280;7937;48.090;16.212;2022-07-17T15:46:07;98416.25;;;46.26;8.04
15674;BME280;7937;48.090;16.212;2022-07-17T15:49:09;98411.69;;;45.92;8.71
15674;BME280;7937;48.090;16.212;2022-07-17T15:52:11;98415.81;;;46.15;8.28
15674;BME280;7937;48.090;16.212;2022-07-17T15:55:14;98409.25;;;45.90;8.56
15674;BME280;7937;48.090;16.212;2022-07-17T15:58:16;98409.47;;;45.68;8.32
15674;BME280;7937;48.090;16.212;2022-07-17T16:01:18;98401.91;;;46.07;8.00
15674;BME280;7937;48.090;16.212;2022-07-17T16:04:20;98410.50;;;46.52;7.52
15674;BME280;7937;48.090;16.212;2022-07-17T16:07:22;98399.56;;;46.59;7.96
15674;BME280;7937;48.090;16.212;2022-07-17T16:10:24;98398.03;;;45.52;9.28
15674;BME280;7937;48.090;16.212;2022-07-17T16:13:26;98402.94;;;44.66;9.02
15674;BME280;7937;48.090;16.212;2022-07-17T16:16:28;98387.97;;;44.10;9.57
15674;BME280;7937;48.090;16.212;2022-07-17T16:19:31;98395.53;;;43.39;10.58
15674;BME280;7937;48.090;16.212;2022-07-17T16:22:33;98391.59;;;43.31;10.18